Time;durP1;ratioP1;P1;durP2;ratioP2;P2;SDS_P1;SDS_P2;PMS_P1;PMS_P2;Temp;Humidity;BMP_temperature;BMP_pressure;BME280_temperature;BME280_humidity;BME280_pressure;Samples;Min_cycle;Max_cycle;Signal;HPM_P1;HPM_P2
2021/06/13 00:01:41;;;;;;;6.25;4.67;;;;;;;15.80;76.17;98187.75;1704251;82;28013;-87
2021/06/13 00:04:11;;;;;;;6.20;4.40;;;;;;;15.76;76.19;98192.98;1707899;82;28183;-85
2021/06/13 00:06:37;;;;;;;7.55;4.62;;;;;;;15.76;76.19;98196.94;1709838;82;28124;-86
2021/06/13 00:09:13;;;;;;;6.67;4.28;;;;;;;15.71;76.22;98188.63;1706902;83;28140;-86
2021/06/13 00:11:39;;;;;;;6.37;4.70;;;;;;;15.71;76.22;98178.87;1685913;83;28171;-85
2021/06/13 00:14:08;;;;;;;5.28;4.78;;;;;;;15.68;76.25;98188.41;1709615;82;28151;-86
2021/06/13 00:16:37;;;;;;;5.60;4.20;;;;;;;15.62;76.27;98190.31;1714684;82;28150;-86
2021/06/13 00:19:05;;;;;;;5.03;3.67;;;;;;;15.59;76.28;98202.48;1710052;82;28189;-85
2021/06/13 00:21:31;;;;;;;6.83;3.87;;;;;;;15.56;76.30;98225.66;1710097;82;28126;-87
2021/06/13 00:24:00;;;;;;;5.35;4.40;;;;;;;15.46;76.32;98211.98;1695150;82;28082;-86
2021/06/13 00:26:41;;;;;;;7.25;4.15;;;;;;;15.44;76.33;98213.92;1712531;82;28170;-86
2021/06/13 00:29:09;;;;;;;4.17;3.40;;;;;;;15.46;76.38;98190.89;1709653;81;28110;-86
2021/06/13 00:31:36;;;;;;;5.00;3.55;;;;;;;15.40;76.40;98186.67;1710914;82;28147;-86
2021/06/13 00:34:03;;;;;;;4.62;3.37;;;;;;;15.29;76.39;98188.98;1706059;83;27994;-85
2021/06/13 00:36:29;;;;;;;5.10;3.40;;;;;;;15.26;76.39;98186.66;1708581;82;28104;-85
2021/06/13 00:38:56;;;;;;;4.42;3.35;;;;;;;15.30;76.42;98196.41;1706764;82;28114;-86
2021/06/13 00:41:23;;;;;;;4.08;3.12;;;;;;;15.29;76.45;98193.43;1708458;82;28038;-86
2021/06/13 00:43:53;;;;;;;3.27;3.00;;;;;;;15.27;76.47;98202.82;1702189;82;28132;-85
2021/06/13 00:46:20;;;;;;;5.37;3.00;;;;;;;15.35;76.53;98214.79;1712412;82;28168;-86
2021/06/13 00:48:46;;;;;;;4.83;3.20;;;;;;;15.44;76.54;98201.22;1708757;83;28092;-86
2021/06/13 00:51:28;;;;;;;5.72;3.33;;;;;;;15.52;76.56;98207.15;1671801;82;28168;-86
2021/06/13 00:53:55;;;;;;;5.42;3.55;;;;;;;15.54;76.58;98206.05;1673192;84;28160;-87
2021/06/13 00:56:21;;;;;;;6.08;4.17;;;;;;;15.57;76.59;98211.02;1644055;86;28011;-85
2021/06/13 00:58:49;;;;;;;5.72;3.25;;;;;;;15.60;76.57;98214.67;1642125;85;28099;-85
2021/06/13 01:01:17;;;;;;;4.42;3.62;;;;;;;15.59;76.55;98214.84;1706919;82;28103;-85
2021/06/13 01:03:45;;;;;;;4.60;3.52;;;;;;;15.59;76.52;98211.72;1711687;82;28195;-85
2021/06/13 01:06:16;;;;;;;5.60;3.87;;;;;;;15.56;76.52;98217.75;1712627;82;28088;-85
2021/06/13 01:08:49;;;;;;;4.80;3.42;;;;;;;15.50;76.50;98221.75;1715100;82;28116;-85
2021/06/13 01:11:46;;;;;;;3.92;3.27;;;;;;;15.42;76.48;98221.17;1717016;82;28120;-85
2021/06/13 01:14:19;;;;;;;3.02;2.50;;;;;;;15.36;76.46;98223.53;1711295;82;28097;-85
2021/06/13 01:17:07;;;;;;;2.80;2.60;;;;;;;15.27;76.44;98237.09;1713753;82;28102;-85
2021/06/13 01:20:13;;;;;;;3.05;2.35;;;;;;;15.22;76.44;98234.54;1717071;81;28167;-86
2021/06/13 01:23:16;;;;;;;3.98;2.42;;;;;;;15.15;76.42;98232.95;1711921;82;28196;-86
2021/06/13 01:25:58;;;;;;;3.08;2.62;;;;;;;15.06;76.38;98229.81;1713711;82;28089;-84
2021/06/13 01:29:00;;;;;;;4.05;3.15;;;;;;;14.98;76.40;98229.69;1708455;82;28094;-86
2021/06/13 01:31:47;;;;;;;6.00;3.60;;;;;;;14.91;76.40;98228.09;1711537;82;28085;-86
2021/06/13 01:34:18;;;;;;;2.47;2.00;;;;;;;14.85;76.42;98227.81;1699619;82;28155;-86
2021/06/13 01:36:47;;;;;;;4.47;2.27;;;;;;;14.78;76.47;98226.72;1711536;82;28128;-85
2021/06/13 01:39:19;;;;;;;3.85;2.40;;;;;;;14.68;76.48;98229.33;1683754;83;28197;-85
2021/06/13 01:41:47;;;;;;;2.35;2.00;;;;;;;14.57;76.50;98228.97;1667707;84;28083;-86
2021/06/13 01:44:24;;;;;;;4.55;2.25;;;;;;;14.53;76.52;98233.34;1687964;84;28132;-85
2021/06/13 01:46:55;;;;;;;3.22;2.27;;;;;;;14.50;76.56;98234.95;1683950;84;28097;-85
2021/06/13 01:49:23;;;;;;;3.37;2.22;;;;;;;14.46;76.57;98238.80;1667979;84;28121;-85
2021/06/13 01:51:51;;;;;;;3.02;2.52;;;;;;;14.47;76.65;98235.20;1661268;84;27999;-85
2021/06/13 01:54:18;;;;;;;3.45;2.10;;;;;;;14.47;76.71;98237.35;1699651;82;28164;-85
2021/06/13 01:56:52;;;;;;;4.33;2.30;;;;;;;14.43;76.76;98237.77;1722012;81;28132;-85
2021/06/13 01:59:20;;;;;;;4.30;2.52;;;;;;;14.33;76.81;98234.25;1711863;82;28488;-85
2021/06/13 02:01:48;;;;;;;3.65;2.52;;;;;;;14.34;76.87;98238.55;1712141;82;28082;-85
2021/06/13 02:04:15;;;;;;;2.52;2.15;;;;;;;14.33;76.92;98237.72;1702945;83;28112;-85
2021/06/13 02:06:48;;;;;;;4.42;2.95;;;;;;;14.34;76.98;98239.39;1714657;82;28080;-84
2021/06/13 02:09:21;;;;;;;4.67;2.90;;;;;;;14.34;77.07;98245.97;1719874;82;28147;-85
2021/06/13 02:11:49;;;;;;;5.50;3.25;;;;;;;14.34;77.14;98245.14;1711191;82;28106;-85
2021/06/13 02:14:21;;;;;;;5.25;3.00;;;;;;;14.34;77.20;98243.34;1716852;82;28082;-85
2021/06/13 02:16:48;;;;;;;;;;;;;;;14.36;77.28;98240.07;1729933;80;28136;-85
2021/06/13 02:19:18;;;;;;;4.75;2.80;;;;;;;14.35;77.33;98242.83;1718332;82;24480;-85
2021/06/13 02:21:57;;;;;;;3.02;2.62;;;;;;;14.35;77.41;98246.77;1720368;82;28192;-85
2021/06/13 02:24:26;;;;;;;2.92;2.52;;;;;;;14.33;77.49;98244.30;1715085;81;28107;-85
2021/06/13 02:26:54;;;;;;;5.05;2.90;;;;;;;14.34;77.55;98245.14;1715850;82;28064;-85
2021/06/13 02:29:28;;;;;;;3.95;2.50;;;;;;;14.23;77.60;98251.34;1718905;82;28066;-85
2021/06/13 02:31:57;;;;;;;3.87;2.67;;;;;;;14.17;77.66;98253.20;1721479;81;28093;-85
2021/06/13 02:34:31;;;;;;;3.30;2.37;;;;;;;14.11;77.68;98251.09;1720526;82;28007;-84
2021/06/13 02:37:07;;;;;;;4.10;3.00;;;;;;;14.10;77.72;98252.89;1721799;82;28117;-84
2021/06/13 02:39:33;;;;;;;2.87;2.60;;;;;;;14.13;77.76;98259.67;1723140;82;28112;-85
2021/06/13 02:42:00;;;;;;;3.45;2.75;;;;;;;14.15;77.84;98263.84;1715981;82;28102;-85
2021/06/13 02:44:26;;;;;;;3.92;3.05;;;;;;;14.15;77.91;98259.90;1713952;82;28091;-85
2021/06/13 02:46:52;;;;;;;2.83;2.40;;;;;;;14.16;77.95;98266.84;1716974;81;28014;-84
2021/06/13 02:49:19;;;;;;;6.10;2.62;;;;;;;14.20;78.00;98275.28;1717129;82;28166;-84
2021/06/13 02:52:05;;;;;;;4.78;2.75;;;;;;;14.24;78.05;98277.98;1718818;82;28107;-85
2021/06/13 02:54:39;;;;;;;4.22;2.50;;;;;;;14.27;78.13;98282.17;1720578;82;28370;-85
2021/06/13 02:57:09;;;;;;;3.50;2.30;;;;;;;14.24;78.15;98283.25;1719202;82;28159;-85
2021/06/13 02:59:52;;;;;;;3.30;2.40;;;;;;;14.21;78.21;98289.64;1713770;82;28209;-85
2021/06/13 03:02:22;;;;;;;2.83;2.52;;;;;;;14.17;78.23;98291.36;1725421;82;28072;-85
2021/06/13 03:04:49;;;;;;;4.08;2.00;;;;;;;14.15;78.28;98290.16;1719847;82;28172;-85
2021/06/13 03:07:20;;;;;;;3.87;2.40;;;;;;;14.16;78.31;98295.78;1719874;82;28094;-84
2021/06/13 03:09:50;;;;;;;4.05;2.60;;;;;;;14.13;78.32;98297.83;1694505;82;28454;-85
2021/06/13 03:12:19;;;;;;;5.03;2.15;;;;;;;14.10;78.33;98302.05;1711419;82;28096;-85
2021/06/13 03:14:48;;;;;;;2.90;2.20;;;;;;;14.09;78.35;98304.33;1720856;81;28222;-84
2021/06/13 03:17:17;;;;;;;3.37;2.22;;;;;;;14.03;78.37;98307.48;1724293;82;28105;-85
2021/06/13 03:19:47;;;;;;;5.53;2.55;;;;;;;14.01;78.37;98306.33;1715651;82;28494;-85
2021/06/13 03:22:15;;;;;;;6.97;2.22;;;;;;;14.04;78.38;98315.25;1717637;82;28037;-84
2021/06/13 03:24:48;;;;;;;4.05;2.08;;;;;;;14.02;78.40;98317.69;1718700;82;28080;-85
2021/06/13 03:27:15;;;;;;;3.65;2.27;;;;;;;14.02;78.42;98322.95;1719969;81;28104;-85
2021/06/13 03:29:44;;;;;;;3.37;2.37;;;;;;;14.03;78.44;98319.33;1715025;82;28120;-85
2021/06/13 03:32:13;;;;;;;3.58;2.33;;;;;;;14.06;78.45;98328.29;1723703;82;28073;-85
2021/06/13 03:34:41;;;;;;;5.87;2.27;;;;;;;14.05;78.50;98330.56;1718538;82;28039;-85
2021/06/13 03:37:10;;;;;;;2.70;2.45;;;;;;;14.03;78.49;98332.48;1717831;82;28121;-84
2021/06/13 03:39:39;;;;;;;4.62;3.22;;;;;;;13.97;78.51;98332.52;1715497;82;28070;-85
2021/06/13 03:42:07;;;;;;;7.67;3.10;;;;;;;13.94;78.50;98333.28;1720913;82;28100;-84
2021/06/13 03:44:34;;;;;;;4.62;2.87;;;;;;;13.95;78.49;98333.63;1722819;81;28084;-85
2021/06/13 03:47:02;;;;;;;5.17;2.40;;;;;;;13.96;78.50;98339.25;1659535;85;28012;-84
2021/06/13 03:49:28;;;;;;;6.50;3.10;;;;;;;13.92;78.50;98336.03;1659359;85;28121;-85
2021/06/13 03:51:55;;;;;;;2.98;2.25;;;;;;;13.92;78.50;98345.72;1683104;84;28119;-85
2021/06/13 03:54:21;;;;;;;4.62;2.45;;;;;;;13.93;78.54;98350.02;1685859;84;28092;-85
2021/06/13 03:56:56;;;;;;;6.03;2.80;;;;;;;13.86;78.54;98345.75;1684046;84;28098;-85
2021/06/13 03:59:25;;;;;;;7.65;2.12;;;;;;;13.87;78.54;98359.27;1687829;84;28068;-85
2021/06/13 04:01:53;;;;;;;3.65;1.95;;;;;;;13.88;78.53;98358.78;1692654;84;28102;-85
2021/06/13 04:04:26;;;;;;;5.75;2.50;;;;;;;13.87;78.54;98359.74;1684711;83;28062;-85
2021/06/13 04:06:56;;;;;;;5.97;2.12;;;;;;;13.89;78.55;98360.45;1685933;84;28107;-85
2021/06/13 04:09:22;;;;;;;4.00;2.00;;;;;;;13.92;78.55;98364.97;1688866;84;28159;-85
2021/06/13 04:11:51;;;;;;;4.15;2.05;;;;;;;13.97;78.59;98361.94;1686725;84;28128;-85
2021/06/13 04:14:26;;;;;;;6.03;2.00;;;;;;;13.95;78.60;98360.78;1686595;83;28152;-86
2021/06/13 04:16:56;;;;;;;4.45;2.02;;;;;;;13.93;78.58;98361.38;1686349;84;28160;-85
2021/06/13 04:19:22;;;;;;;3.70;2.08;;;;;;;13.96;78.61;98360.30;1688999;84;28163;-85
2021/06/13 04:21:49;;;;;;;6.05;2.08;;;;;;;13.91;78.59;98359.34;1684478;84;28092;-85
2021/06/13 04:24:20;;;;;;;3.65;1.90;;;;;;;13.89;78.57;98366.55;1681987;84;28209;-85
2021/06/13 04:26:48;;;;;;;3.27;1.98;;;;;;;13.87;78.57;98372.89;1684102;84;28105;-84
2021/06/13 04:29:14;;;;;;;5.53;2.33;;;;;;;13.86;78.56;98374.69;1688545;84;28081;-83
2021/06/13 04:31:41;;;;;;;3.47;1.82;;;;;;;13.90;78.60;98376.60;1680379;84;28106;-83
2021/06/13 04:34:07;;;;;;;2.72;2.17;;;;;;;13.88;78.57;98379.35;1694628;84;28122;-84
2021/06/13 04:36:36;;;;;;;6.97;2.55;;;;;;;13.85;78.58;98375.67;1691695;84;28071;-83
2021/06/13 04:39:03;;;;;;;4.85;2.67;;;;;;;13.82;78.60;98387.27;1682143;83;28195;-84
2021/06/13 04:41:34;;;;;;;6.10;2.20;;;;;;;13.77;78.60;98385.52;1681327;84;28070;-84
2021/06/13 04:43:58;;;;;;;5.25;3.25;;;;;;;13.78;78.64;98383.24;1685122;84;28174;-84
2021/06/13 04:46:28;;;;;;;3.95;2.33;;;;;;;13.74;78.66;98387.10;1692530;83;28105;-84
2021/06/13 04:48:53;;;;;;;3.83;2.17;;;;;;;13.72;78.66;98386.86;1688152;84;28237;-84
2021/06/13 04:51:20;;;;;;;4.67;2.20;;;;;;;13.70;78.66;98388.30;1691684;84;28100;-84
2021/06/13 04:53:54;;;;;;;5.85;2.08;;;;;;;13.74;78.69;98398.94;1688436;84;28119;-83
2021/06/13 04:56:42;;;;;;;6.20;2.25;;;;;;;13.77;78.73;98405.24;1654471;85;28008;-84
2021/06/13 04:59:09;;;;;;;4.00;1.72;;;;;;;13.77;78.73;98397.83;1681514;85;28238;-84
2021/06/13 05:01:36;;;;;;;3.08;2.08;;;;;;;13.81;78.75;98407.96;1682998;83;28107;-84
2021/06/13 05:04:03;;;;;;;6.03;1.65;;;;;;;13.80;78.76;98410.74;1676789;85;28187;-84
2021/06/13 05:06:35;;;;;;;3.50;1.72;;;;;;;13.80;78.74;98420.75;1670379;84;28107;-84
2021/06/13 05:09:03;;;;;;;4.78;1.95;;;;;;;13.81;78.74;98419.80;1701672;83;28010;-84
2021/06/13 05:11:29;;;;;;;4.95;1.60;;;;;;;13.86;78.74;98423.36;1700074;82;28081;-85
2021/06/13 05:13:55;;;;;;;4.58;1.80;;;;;;;13.86;78.76;98419.89;1677814;83;28133;-85
2021/06/13 05:16:21;;;;;;;4.78;1.72;;;;;;;13.87;78.73;98429.45;1698027;83;28013;-85
2021/06/13 05:18:48;;;;;;;6.00;2.87;;;;;;;13.91;78.76;98429.06;1697021;83;28135;-84
2021/06/13 05:21:14;;;;;;;6.85;1.92;;;;;;;14.02;78.78;98432.15;1700096;83;28116;-85
2021/06/13 05:23:42;;;;;;;3.72;2.08;;;;;;;14.12;78.79;98438.30;1706890;83;27993;-86
2021/06/13 05:26:08;;;;;;;3.90;1.82;;;;;;;14.15;78.79;98440.18;1706856;83;28163;-85
2021/06/13 05:28:34;;;;;;;3.72;1.70;;;;;;;14.20;78.76;98441.11;1707117;83;28134;-85
2021/06/13 05:31:08;;;;;;;4.10;1.70;;;;;;;14.23;78.76;98450.08;1706345;83;28383;-86
2021/06/13 05:33:41;;;;;;;2.50;1.70;;;;;;;14.20;78.69;98447.69;1695937;83;28124;-85
2021/06/13 05:36:08;;;;;;;4.97;1.62;;;;;;;14.21;78.65;98456.78;1705895;83;28091;-85
2021/06/13 05:38:34;;;;;;;6.42;1.70;;;;;;;14.24;78.63;98450.41;1706984;83;28117;-85
2021/06/13 05:41:00;;;;;;;3.83;1.67;;;;;;;14.24;78.56;98456.50;1707893;83;28103;-84
2021/06/13 05:43:27;;;;;;;4.50;1.72;;;;;;;14.18;78.50;98454.39;1706787;83;28221;-84
2021/06/13 05:45:54;;;;;;;5.53;1.72;;;;;;;14.13;78.38;98457.05;1706096;83;28128;-84
2021/06/13 05:48:22;;;;;;;7.55;2.62;;;;;;;14.11;78.24;98461.15;1707194;83;28002;-85
2021/06/13 05:50:48;;;;;;;8.88;1.95;;;;;;;14.17;78.15;98464.59;1706338;83;28144;-85
2021/06/13 05:53:14;;;;;;;4.28;1.80;;;;;;;14.22;78.08;98463.72;1706327;83;28060;-85
2021/06/13 05:55:47;;;;;;;4.92;1.60;;;;;;;14.26;78.05;98460.33;1707138;83;28057;-85
2021/06/13 05:58:15;;;;;;;4.00;1.67;;;;;;;14.34;78.02;98470.23;1668490;83;28151;-85
2021/06/13 06:00:42;;;;;;;8.10;1.65;;;;;;;14.42;77.94;98473.90;1706792;83;28084;-85
2021/06/13 06:03:09;;;;;;;4.62;1.40;;;;;;;14.43;77.87;98476.05;1683804;83;28115;-85
2021/06/13 06:05:38;;;;;;;4.65;1.50;;;;;;;14.46;77.79;98473.14;1712557;82;28133;-85
2021/06/13 06:08:05;;;;;;;3.75;1.82;;;;;;;14.46;77.69;98479.25;1716111;82;28065;-85
2021/06/13 06:10:37;;;;;;;3.62;1.72;;;;;;;14.43;77.56;98478.20;1716234;82;28193;-85
2021/06/13 06:13:04;;;;;;;3.98;1.80;;;;;;;14.44;77.42;98482.52;1711559;82;28087;-85
2021/06/13 06:15:38;;;;;;;3.50;1.45;;;;;;;14.42;77.33;98487.06;1705614;82;28131;-85
2021/06/13 06:18:08;;;;;;;3.40;1.65;;;;;;;14.45;77.21;98489.45;1700465;82;28090;-85
2021/06/13 06:20:35;;;;;;;3.83;1.45;;;;;;;14.48;77.12;98489.19;1712337;82;28170;-86
2021/06/13 06:23:02;;;;;;;4.85;1.57;;;;;;;14.55;77.04;98498.72;1708100;82;28092;-85
2021/06/13 06:25:31;;;;;;;4.12;1.75;;;;;;;14.57;76.90;98492.81;1634020;85;28123;-85
2021/06/13 06:27:58;;;;;;;4.65;1.57;;;;;;;14.59;76.79;98499.64;1639346;86;28089;-84
2021/06/13 06:30:30;;;;;;;3.58;1.45;;;;;;;14.57;76.65;98501.56;1713489;82;28144;-85
2021/06/13 06:32:57;;;;;;;3.27;1.37;;;;;;;14.61;76.50;98502.98;1709974;82;28132;-85
2021/06/13 06:35:25;;;;;;;4.53;1.60;;;;;;;14.68;76.37;98509.02;1689356;84;28069;-85
2021/06/13 06:37:52;;;;;;;4.35;1.70;;;;;;;14.74;76.25;98511.14;1689515;84;28039;-85
2021/06/13 06:40:18;;;;;;;4.00;2.12;;;;;;;14.86;76.17;98500.88;1687936;84;28073;-84
2021/06/13 06:42:44;;;;;;;6.35;2.10;;;;;;;14.91;76.08;98509.21;1702732;82;28003;-85
2021/06/13 06:45:13;;;;;;;6.83;1.85;;;;;;;14.99;75.98;98509.40;1707948;82;28051;-85
2021/06/13 06:47:43;;;;;;;4.17;1.52;;;;;;;15.14;75.94;98509.86;1705539;82;28080;-85
2021/06/13 06:50:12;;;;;;;6.10;1.55;;;;;;;15.24;75.86;98513.36;1670756;82;28175;-84
2021/06/13 06:52:39;;;;;;;5.00;1.90;;;;;;;15.33;75.79;98507.27;1709576;82;28093;-85
2021/06/13 06:55:14;;;;;;;3.27;1.60;;;;;;;15.37;75.70;98510.00;1710651;82;28085;-84
2021/06/13 06:57:46;;;;;;;2.65;1.42;;;;;;;15.34;75.60;98512.41;1709484;81;28124;-85
2021/06/13 07:00:13;;;;;;;3.08;1.62;;;;;;;15.32;75.41;98517.48;1710627;81;28057;-85
2021/06/13 07:02:40;;;;;;;3.47;1.40;;;;;;;15.31;75.17;98517.97;1716935;82;28152;-84
2021/06/13 07:05:07;;;;;;;3.47;1.40;;;;;;;15.27;74.97;98515.74;1707047;82;28085;-85
2021/06/13 07:07:34;;;;;;;6.10;1.65;;;;;;;15.24;74.70;98519.95;1695048;83;28090;-85
2021/06/13 07:10:01;;;;;;;4.85;1.72;;;;;;;15.28;74.48;98518.22;1711155;83;28144;-86
2021/06/13 07:12:29;;;;;;;6.25;1.45;;;;;;;15.29;74.31;98513.30;1713298;83;28083;-85
2021/06/13 07:14:55;;;;;;;5.47;1.90;;;;;;;15.26;74.04;98520.17;1708821;83;28126;-85
2021/06/13 07:17:21;;;;;;;5.20;1.40;;;;;;;15.24;73.76;98523.91;1688088;83;28119;-85
2021/06/13 07:19:54;;;;;;;3.77;1.37;;;;;;;15.20;73.52;98528.62;1711354;83;28107;-86
2021/06/13 07:22:21;;;;;;;2.72;1.90;;;;;;;15.11;73.21;98529.40;1715854;83;28092;-86
2021/06/13 07:24:47;;;;;;;3.22;1.35;;;;;;;15.02;72.88;98530.20;1708001;83;28131;-85
2021/06/13 07:27:13;;;;;;;3.20;1.30;;;;;;;14.96;72.62;98539.95;1707166;83;28127;-85
2021/06/13 07:29:49;;;;;;;3.25;1.42;;;;;;;14.89;72.34;98537.52;1706045;82;28088;-85
2021/06/13 07:32:16;;;;;;;4.65;1.40;;;;;;;14.90;72.15;98545.27;1703053;83;28164;-86
2021/06/13 07:34:43;;;;;;;4.83;1.65;;;;;;;14.97;72.01;98545.58;1702664;83;28107;-86
2021/06/13 07:37:15;;;;;;;6.85;1.30;;;;;;;15.12;71.95;98550.01;1706769;83;28069;-85
2021/06/13 07:39:44;;;;;;;6.15;1.57;;;;;;;15.14;71.82;98555.99;1704415;83;28435;-85
2021/06/13 07:42:10;;;;;;;2.10;1.62;;;;;;;15.20;71.66;98550.19;1692137;83;28164;-86
2021/06/13 07:44:37;;;;;;;5.62;1.60;;;;;;;15.23;71.49;98553.39;1702680;81;28115;-86
2021/06/13 07:47:04;;;;;;;5.08;1.30;;;;;;;15.22;71.25;98550.39;1704896;83;28189;-86
2021/06/13 07:49:31;;;;;;;4.03;1.22;;;;;;;15.28;71.10;98548.55;1704127;83;28250;-86
2021/06/13 07:52:00;;;;;;;3.72;1.35;;;;;;;15.39;70.98;98556.83;1703242;83;28108;-86
2021/06/13 07:54:30;;;;;;;2.30;1.35;;;;;;;15.38;70.80;98556.00;1688874;83;28152;-86
2021/06/13 07:57:04;;;;;;;3.33;1.40;;;;;;;15.30;70.50;98559.80;1704768;83;28080;-86
2021/06/13 07:59:31;;;;;;;4.37;1.55;;;;;;;15.23;70.27;98559.98;1705159;83;28059;-86
2021/06/13 08:01:58;;;;;;;3.02;1.52;;;;;;;15.13;69.97;98567.50;1705049;83;28135;-86
2021/06/13 08:04:24;;;;;;;4.80;1.35;;;;;;;15.10;69.82;98565.98;1705260;83;28057;-86
2021/06/13 08:06:54;;;;;;;3.30;1.60;;;;;;;15.01;69.63;98574.17;1683932;83;28152;-85
2021/06/13 08:09:28;;;;;;;3.35;1.60;;;;;;;14.97;69.47;98578.05;1712362;81;28076;-85
2021/06/13 08:11:54;;;;;;;3.20;1.57;;;;;;;14.91;69.34;98581.20;1708834;83;28099;-86
2021/06/13 08:14:21;;;;;;;4.78;1.67;;;;;;;14.87;69.17;98588.19;1707191;82;28124;-86
2021/06/13 08:16:48;;;;;;;2.87;1.27;;;;;;;14.89;69.06;98590.22;1707695;82;28119;-85
2021/06/13 08:19:14;;;;;;;3.72;1.40;;;;;;;14.94;69.02;98589.34;1692817;82;28115;-85
2021/06/13 08:21:41;;;;;;;5.15;1.62;;;;;;;15.00;68.97;98585.67;1705981;82;28005;-85
2021/06/13 08:24:09;;;;;;;4.60;1.40;;;;;;;15.12;68.94;98588.23;1710672;82;28174;-85
2021/06/13 08:26:36;;;;;;;6.40;2.08;;;;;;;15.27;68.91;98593.52;1707725;82;28144;-88
2021/06/13 08:29:04;;;;;;;2.77;1.45;;;;;;;15.39;68.86;98587.16;1703237;83;28081;-86
2021/06/13 08:31:31;;;;;;;8.10;1.47;;;;;;;15.46;68.77;98593.10;1706212;83;28088;-84
2021/06/13 08:33:58;;;;;;;5.58;1.70;;;;;;;15.50;68.71;98588.38;1707785;82;28088;-84
2021/06/13 08:36:25;;;;;;;2.62;1.60;;;;;;;15.48;68.56;98595.61;1710475;83;28080;-84
2021/06/13 08:38:55;;;;;;;5.87;1.70;;;;;;;15.40;68.35;98596.75;1708705;82;28118;-84
2021/06/13 08:41:23;;;;;;;2.35;1.27;;;;;;;15.36;68.19;98602.78;1710661;83;28053;-84
2021/06/13 08:43:50;;;;;;;3.42;1.30;;;;;;;15.29;68.05;98602.12;1707480;82;28182;-84
2021/06/13 08:46:19;;;;;;;3.67;1.40;;;;;;;15.21;67.90;98607.23;1706165;81;28084;-84
2021/06/13 08:48:50;;;;;;;5.12;1.52;;;;;;;15.19;67.77;98603.41;1705838;82;28104;-84
2021/06/13 08:51:18;;;;;;;3.77;1.22;;;;;;;15.23;67.69;98606.12;1704828;82;28079;-84
2021/06/13 08:53:45;;;;;;;2.83;1.90;;;;;;;15.33;67.64;98610.95;1714142;82;28103;-84
2021/06/13 08:56:14;;;;;;;4.72;1.60;;;;;;;15.45;67.62;98597.18;1695443;83;28077;-84
2021/06/13 08:58:41;;;;;;;4.45;1.95;;;;;;;15.57;67.52;98602.74;1707236;81;28050;-84
2021/06/13 09:01:10;;;;;;;4.55;1.57;;;;;;;15.78;67.53;98603.97;1708036;82;28130;-84
2021/06/13 09:03:37;;;;;;;5.28;1.35;;;;;;;16.03;67.53;98601.33;1705111;83;28103;-85
2021/06/13 09:06:04;;;;;;;4.55;1.67;;;;;;;16.11;67.47;98594.38;1712642;82;28179;-84
2021/06/13 09:08:33;;;;;;;3.90;1.80;;;;;;;16.12;67.27;98609.25;1710759;82;28094;-84
2021/06/13 09:11:03;;;;;;;5.35;1.50;;;;;;;15.99;67.00;98610.47;1719378;82;28131;-85
2021/06/13 09:13:37;;;;;;;7.62;1.92;;;;;;;15.73;66.57;98603.06;1719653;82;28053;-84
2021/06/13 09:16:08;;;;;;;2.62;1.52;;;;;;;15.49;66.05;98609.97;1717329;82;28064;-85
2021/06/13 09:18:44;;;;;;;5.45;1.50;;;;;;;15.37;65.65;98612.85;1714904;82;28111;-85
2021/06/13 09:21:23;;;;;;;4.03;1.72;;;;;;;15.36;65.40;98618.61;1713177;82;28123;-84
2021/06/13 09:23:49;;;;;;;3.08;1.30;;;;;;;15.34;65.19;98621.84;1720801;82;28065;-84
2021/06/13 09:26:18;;;;;;;4.60;1.70;;;;;;;15.26;64.92;98629.60;1710563;82;28124;-85
2021/06/13 09:28:46;;;;;;;3.25;1.42;;;;;;;15.25;64.79;98625.29;1718934;82;28091;-85
2021/06/13 09:31:17;;;;;;;4.80;1.50;;;;;;;15.26;64.65;98633.56;1709201;82;28107;-84
2021/06/13 09:33:46;;;;;;;3.58;1.55;;;;;;;15.33;64.57;98628.56;1718173;82;28007;-84
2021/06/13 09:36:18;;;;;;;4.50;1.50;;;;;;;15.42;64.47;98628.63;1706467;82;28087;-84
2021/06/13 09:38:47;;;;;;;7.10;1.60;;;;;;;15.58;64.44;98629.96;1714359;82;28066;-84
2021/06/13 09:41:19;;;;;;;4.25;1.80;;;;;;;15.71;64.40;98630.58;1715096;82;28001;-85
2021/06/13 09:43:49;;;;;;;;;;;;;;;15.82;64.35;98631.75;1724130;82;28140;-84
2021/06/13 09:46:19;;;;;;;3.05;1.00;;;;;;;15.84;64.22;98637.75;1722323;81;24420;-85
2021/06/13 09:49:07;;;;;;;5.17;1.47;;;;;;;15.75;63.89;98643.84;1689448;82;28188;-84
2021/06/13 09:51:38;;;;;;;4.17;1.40;;;;;;;15.66;63.52;98644.63;1711135;81;28101;-85
2021/06/13 09:54:06;;;;;;;2.17;1.00;;;;;;;15.61;63.05;98641.07;1709735;82;28039;-84
2021/06/13 09:56:41;;;;;;;3.90;1.17;;;;;;;15.66;62.81;98644.63;1724654;80;28000;-84
2021/06/13 09:59:12;;;;;;;2.22;1.40;;;;;;;15.73;62.56;98647.09;1716062;82;28159;-83
2021/06/13 10:01:44;;;;;;;2.42;0.80;;;;;;;15.79;62.42;98640.80;1713179;82;28098;-84
2021/06/13 10:04:24;;;;;;;4.80;1.25;;;;;;;15.94;62.25;98650.48;1722820;81;28082;-85
2021/06/13 10:06:59;;;;;;;3.77;1.10;;;;;;;16.19;62.16;98656.59;1718918;82;28010;-84
2021/06/13 10:09:40;;;;;;;3.52;1.12;;;;;;;16.34;61.94;98654.38;1716995;82;28128;-83
2021/06/13 10:12:10;;;;;;;3.05;1.25;;;;;;;16.38;61.59;98650.95;1715200;82;28126;-84
2021/06/13 10:14:40;;;;;;;1.42;0.80;;;;;;;16.38;61.23;98645.19;1722325;81;28181;-84
2021/06/13 10:17:07;;;;;;;28.12;13.70;;;;;;;16.42;60.90;98662.94;1719859;81;28147;-84
2021/06/13 10:19:42;;;;;;;5.90;3.00;;;;;;;16.50;60.75;98659.11;1727624;82;28074;-84
2021/06/13 10:22:11;;;;;;;3.45;2.60;;;;;;;16.64;60.64;98658.22;1718864;82;28136;-85
2021/06/13 10:24:41;;;;;;;1.70;1.12;;;;;;;16.81;60.57;98658.00;1714742;82;28149;-84
2021/06/13 10:27:11;;;;;;;4.95;1.47;;;;;;;16.92;60.35;98647.77;1717688;82;28141;-84
2021/06/13 10:29:42;;;;;;;7.80;2.20;;;;;;;16.89;59.91;98661.28;1714780;82;28226;-84
2021/06/13 10:32:13;;;;;;;4.10;1.45;;;;;;;16.75;59.53;98661.20;1717040;82;28149;-83
2021/06/13 10:34:39;;;;;;;3.00;1.40;;;;;;;16.73;59.28;98664.02;1710423;82;28187;-84
2021/06/13 10:37:08;;;;;;;4.15;1.05;;;;;;;16.82;59.05;98660.16;1722901;82;28111;-84
2021/06/13 10:39:36;;;;;;;8.30;3.70;;;;;;;16.88;58.93;98655.16;1714480;81;28192;-84
2021/06/13 10:42:06;;;;;;;12.47;5.33;;;;;;;16.88;58.83;98674.98;1715032;81;28125;-84
2021/06/13 10:44:36;;;;;;;4.00;2.25;;;;;;;16.82;58.66;98668.93;1720632;81;28133;-86
2021/06/13 10:47:13;;;;;;;2.77;1.37;;;;;;;16.78;58.57;98678.12;1726385;80;28125;-84
2021/06/13 10:49:46;;;;;;;4.12;1.20;;;;;;;16.68;58.38;98666.73;1718918;80;28081;-84
2021/06/13 10:52:27;;;;;;;3.17;1.62;;;;;;;16.68;58.25;98666.73;1716434;80;28154;-84
2021/06/13 10:54:56;;;;;;;3.70;1.98;;;;;;;16.59;57.97;98668.38;1718859;82;28146;-84
2021/06/13 10:57:30;;;;;;;4.28;1.92;;;;;;;16.52;57.71;98676.50;1719514;81;28193;-84
2021/06/13 10:59:59;;;;;;;4.83;2.17;;;;;;;16.50;57.55;98674.95;1688607;84;28090;-84
2021/06/13 11:02:38;;;;;;;4.97;1.75;;;;;;;16.55;57.42;98672.73;1716052;82;28131;-84
2021/06/13 11:05:07;;;;;;;5.40;1.42;;;;;;;16.61;57.35;98674.37;1714691;82;28080;-84
2021/06/13 11:07:43;;;;;;;2.83;1.40;;;;;;;16.59;57.13;98670.19;1724520;81;28060;-84
2021/06/13 11:10:17;;;;;;;3.83;1.90;;;;;;;16.73;57.13;98681.19;1719691;82;28105;-84
2021/06/13 11:13:03;;;;;;;6.72;1.40;;;;;;;16.78;57.06;98674.64;1716723;81;27989;-84
2021/06/13 11:15:41;;;;;;;4.05;1.22;;;;;;;16.79;56.99;98675.83;1720935;82;28058;-84
2021/06/13 11:18:23;;;;;;;10.50;5.40;;;;;;;16.77;56.85;98676.94;1697678;82;28110;-84
2021/06/13 11:21:09;;;;;;;7.20;3.00;;;;;;;16.83;56.72;98679.02;1720659;81;28138;-84
2021/06/13 11:23:42;;;;;;;11.08;6.85;;;;;;;16.97;56.71;98674.61;1712165;82;28110;-84
2021/06/13 11:26:27;;;;;;;7.12;4.10;;;;;;;17.06;56.63;98679.07;1724299;82;28182;-84
2021/06/13 11:28:57;;;;;;;3.47;1.40;;;;;;;17.19;56.58;98665.52;1724051;81;28071;-84
2021/06/13 11:31:27;;;;;;;2.27;1.25;;;;;;;17.19;56.43;98672.13;1720039;80;28070;-84
2021/06/13 11:33:57;;;;;;;4.37;1.47;;;;;;;17.04;56.15;98674.41;1720972;82;28133;-84
2021/06/13 11:36:27;;;;;;;3.58;1.50;;;;;;;16.86;55.80;98677.41;1712456;82;28123;-84
2021/06/13 11:39:06;;;;;;;2.77;1.37;;;;;;;16.74;55.58;98675.42;1716817;82;28166;-84
2021/06/13 11:41:44;;;;;;;5.28;1.20;;;;;;;16.60;55.40;98671.86;1722094;82;28084;-84
2021/06/13 11:44:24;;;;;;;2.67;1.17;;;;;;;16.53;55.26;98677.34;1716472;82;28128;-84
2021/06/13 11:46:53;;;;;;;2.45;1.32;;;;;;;16.44;55.08;98680.79;1723158;82;28064;-84
2021/06/13 11:49:23;;;;;;;3.87;1.47;;;;;;;16.47;55.06;98675.25;1718878;82;28076;-84